sensor_id;sensor_type;location;lat;lon;timestamp;P1;durP1;ratioP1;P2;durP2;ratioP2
6551;SDS011;3309;48.708;9.290;2022-08-21T00:01:59;0.37;;;0.37;;
6551;SDS011;3309;48.708;9.290;2022-08-21T00:04:25;0.43;;;0.43;;
6551;SDS011;3309;48.708;9.290;2022-08-21T00:06:51;0.40;;;0.40;;
6551;SDS011;3309;48.708;9.290;2022-08-21T00:09:18;0.40;;;0.40;;
6551;SDS011;3309;48.708;9.290;2022-08-21T00:11:44;0.30;;;0.30;;
6551;SDS011;3309;48.708;9.290;2022-08-21T00:14:10;0.50;;;0.50;;
6551;SDS011;3309;48.708;9.290;2022-08-21T00:16:37;0.60;;;0.60;;
6551;SDS011;3309;48.708;9.290;2022-08-21T00:19:03;0.50;;;0.50;;
6551;SDS011;3309;48.708;9.290;2022-08-21T00:21:31;0.50;;;0.50;;
6551;SDS011;3309;48.708;9.290;2022-08-21T00:23:57;0.50;;;0.50;;
6551;SDS011;3309;48.708;9.290;2022-08-21T00:26:23;0.50;;;0.50;;
6551;SDS011;3309;48.708;9.290;2022-08-21T00:28:48;0.40;;;0.40;;
6551;SDS011;3309;48.708;9.290;2022-08-21T00:31:14;0.43;;;0.43;;
6551;SDS011;3309;48.708;9.290;2022-08-21T00:33:41;0.40;;;0.40;;
6551;SDS011;3309;48.708;9.290;2022-08-21T00:36:07;0.50;;;0.50;;
6551;SDS011;3309;48.708;9.290;2022-08-21T00:38:33;0.30;;;0.30;;
6551;SDS011;3309;48.708;9.290;2022-08-21T00:40:59;0.50;;;0.50;;
6551;SDS011;3309;48.708;9.290;2022-08-21T00:43:28;0.50;;;0.50;;
6551;SDS011;3309;48.708;9.290;2022-08-21T00:46:03;0.40;;;0.40;;
6551;SDS011;3309;48.708;9.290;2022-08-21T00:48:30;0.47;;;0.47;;
6551;SDS011;3309;48.708;9.290;2022-08-21T00:51:07;0.40;;;0.40;;
6551;SDS011;3309;48.708;9.290;2022-08-21T00:53:42;0.47;;;0.47;;
6551;SDS011;3309;48.708;9.290;2022-08-21T00:56:11;0.40;;;0.40;;
6551;SDS011;3309;48.708;9.290;2022-08-21T00:58:39;0.50;;;0.50;;
6551;SDS011;3309;48.708;9.290;2022-08-21T01:01:07;0.40;;;0.40;;
6551;SDS011;3309;48.708;9.290;2022-08-21T01:03:33;0.40;;;0.40;;
6551;SDS011;3309;48.708;9.290;2022-08-21T01:05:59;0.50;;;0.50;;
6551;SDS011;3309;48.708;9.290;2022-08-21T01:08:24;0.40;;;0.40;;
6551;SDS011;3309;48.708;9.290;2022-08-21T01:10:52;0.40;;;0.40;;
6551;SDS011;3309;48.708;9.290;2022-08-21T01:13:18;0.40;;;0.40;;
6551;SDS011;3309;48.708;9.290;2022-08-21T01:15:47;0.40;;;0.40;;
6551;SDS011;3309;48.708;9.290;2022-08-21T01:18:15;0.40;;;0.40;;
6551;SDS011;3309;48.708;9.290;2022-08-21T01:20:43;0.40;;;0.40;;
6551;SDS011;3309;48.708;9.290;2022-08-21T01:23:14;0.50;;;0.50;;
6551;SDS011;3309;48.708;9.290;2022-08-21T01:25:40;0.50;;;0.50;;
6551;SDS011;3309;48.708;9.290;2022-08-21T01:28:11;0.50;;;0.50;;
6551;SDS011;3309;48.708;9.290;2022-08-21T01:30:38;0.40;;;0.40;;
6551;SDS011;3309;48.708;9.290;2022-08-21T01:33:04;0.50;;;0.50;;
6551;SDS011;3309;48.708;9.290;2022-08-21T01:35:30;0.40;;;0.40;;
6551;SDS011;3309;48.708;9.290;2022-08-21T01:37:55;0.43;;;0.43;;
6551;SDS011;3309;48.708;9.290;2022-08-21T01:40:21;0.40;;;0.40;;
6551;SDS011;3309;48.708;9.290;2022-08-21T01:42:47;0.47;;;0.47;;
6551;SDS011;3309;48.708;9.290;2022-08-21T01:45:13;0.40;;;0.40;;
6551;SDS011;3309;48.708;9.290;2022-08-21T01:47:40;0.40;;;0.40;;
6551;SDS011;3309;48.708;9.290;2022-08-21T01:50:08;0.47;;;0.47;;
6551;SDS011;3309;48.708;9.290;2022-08-21T01:52:35;0.43;;;0.43;;
6551;SDS011;3309;48.708;9.290;2022-08-21T01:55:01;0.40;;;0.40;;
6551;SDS011;3309;48.708;9.290;2022-08-21T01:57:28;0.40;;;0.40;;
6551;SDS011;3309;48.708;9.290;2022-08-21T01:59:53;0.50;;;0.50;;
6551;SDS011;3309;48.708;9.290;2022-08-21T02:02:19;0.60;;;0.60;;
6551;SDS011;3309;48.708;9.290;2022-08-21T02:04:45;0.50;;;0.50;;
6551;SDS011;3309;48.708;9.290;2022-08-21T02:07:10;0.50;;;0.50;;
6551;SDS011;3309;48.708;9.290;2022-08-21T02:09:36;0.40;;;0.40;;
6551;SDS011;3309;48.708;9.290;2022-08-21T02:12:02;0.40;;;0.40;;
6551;SDS011;3309;48.708;9.290;2022-08-21T02:14:28;0.43;;;0.43;;
6551;SDS011;3309;48.708;9.290;2022-08-21T02:16:53;0.50;;;0.50;;
6551;SDS011;3309;48.708;9.290;2022-08-21T02:19:19;0.43;;;0.43;;
6551;SDS011;3309;48.708;9.290;2022-08-21T02:21:44;0.40;;;0.40;;
6551;SDS011;3309;48.708;9.290;2022-08-21T02:24:10;0.40;;;0.40;;
6551;SDS011;3309;48.708;9.290;2022-08-21T02:26:36;0.40;;;0.40;;
6551;SDS011;3309;48.708;9.290;2022-08-21T02:29:02;0.50;;;0.50;;
6551;SDS011;3309;48.708;9.290;2022-08-21T02:31:29;0.43;;;0.43;;
6551;SDS011;3309;48.708;9.290;2022-08-21T02:33:54;0.40;;;0.40;;
6551;SDS011;3309;48.708;9.290;2022-08-21T02:36:20;0.40;;;0.40;;
6551;SDS011;3309;48.708;9.290;2022-08-21T02:38:46;0.40;;;0.40;;
6551;SDS011;3309;48.708;9.290;2022-08-21T02:41:16;0.47;;;0.47;;
6551;SDS011;3309;48.708;9.290;2022-08-21T02:43:43;0.40;;;0.40;;
6551;SDS011;3309;48.708;9.290;2022-08-21T02:46:10;0.50;;;0.50;;
6551;SDS011;3309;48.708;9.290;2022-08-21T02:48:37;0.40;;;0.40;;
6551;SDS011;3309;48.708;9.290;2022-08-21T02:51:05;0.40;;;0.40;;
6551;SDS011;3309;48.708;9.290;2022-08-21T02:53:32;0.40;;;0.40;;
6551;SDS011;3309;48.708;9.290;2022-08-21T02:56:00;0.50;;;0.50;;
6551;SDS011;3309;48.708;9.290;2022-08-21T02:58:28;0.40;;;0.40;;
6551;SDS011;3309;48.708;9.290;2022-08-21T03:00:59;0.40;;;0.40;;
6551;SDS011;3309;48.708;9.290;2022-08-21T03:03:25;0.40;;;0.40;;
6551;SDS011;3309;48.708;9.290;2022-08-21T03:05:52;0.40;;;0.40;;
6551;SDS011;3309;48.708;9.290;2022-08-21T03:08:18;0.40;;;0.40;;
6551;SDS011;3309;48.708;9.290;2022-08-21T03:10:46;0.50;;;0.50;;
6551;SDS011;3309;48.708;9.290;2022-08-21T03:13:15;0.40;;;0.40;;
6551;SDS011;3309;48.708;9.290;2022-08-21T03:15:44;0.50;;;0.50;;
6551;SDS011;3309;48.708;9.290;2022-08-21T03:18:10;0.40;;;0.40;;
6551;SDS011;3309;48.708;9.290;2022-08-21T03:20:37;0.40;;;0.40;;
6551;SDS011;3309;48.708;9.290;2022-08-21T03:23:04;0.40;;;0.40;;
6551;SDS011;3309;48.708;9.290;2022-08-21T03:25:30;0.40;;;0.40;;
6551;SDS011;3309;48.708;9.290;2022-08-21T03:27:58;0.50;;;0.50;;
6551;SDS011;3309;48.708;9.290;2022-08-21T03:30:24;0.40;;;0.40;;
6551;SDS011;3309;48.708;9.290;2022-08-21T03:32:50;0.50;;;0.50;;
6551;SDS011;3309;48.708;9.290;2022-08-21T03:35:16;0.43;;;0.43;;
6551;SDS011;3309;48.708;9.290;2022-08-21T03:37:42;0.50;;;0.50;;
6551;SDS011;3309;48.708;9.290;2022-08-21T03:40:09;0.40;;;0.40;;
6551;SDS011;3309;48.708;9.290;2022-08-21T03:42:36;0.47;;;0.47;;
6551;SDS011;3309;48.708;9.290;2022-08-21T03:45:03;0.40;;;0.40;;
6551;SDS011;3309;48.708;9.290;2022-08-21T03:47:30;0.43;;;0.43;;
6551;SDS011;3309;48.708;9.290;2022-08-21T03:49:55;0.50;;;0.50;;
6551;SDS011;3309;48.708;9.290;2022-08-21T03:52:21;0.50;;;0.50;;
6551;SDS011;3309;48.708;9.290;2022-08-21T03:54:46;0.50;;;0.50;;
6551;SDS011;3309;48.708;9.290;2022-08-21T03:57:12;0.40;;;0.40;;
6551;SDS011;3309;48.708;9.290;2022-08-21T03:59:38;0.40;;;0.40;;
6551;SDS011;3309;48.708;9.290;2022-08-21T04:02:05;0.40;;;0.40;;
6551;SDS011;3309;48.708;9.290;2022-08-21T04:04:31;0.50;;;0.50;;
6551;SDS011;3309;48.708;9.290;2022-08-21T04:06:58;0.50;;;0.50;;
6551;SDS011;3309;48.708;9.290;2022-08-21T04:09:24;0.57;;;0.57;;
6551;SDS011;3309;48.708;9.290;2022-08-21T04:11:50;0.50;;;0.50;;
6551;SDS011;3309;48.708;9.290;2022-08-21T04:14:17;0.60;;;0.60;;
6551;SDS011;3309;48.708;9.290;2022-08-21T04:16:43;0.53;;;0.53;;
6551;SDS011;3309;48.708;9.290;2022-08-21T04:19:10;0.50;;;0.50;;
6551;SDS011;3309;48.708;9.290;2022-08-21T04:21:37;0.40;;;0.40;;
6551;SDS011;3309;48.708;9.290;2022-08-21T04:24:04;0.60;;;0.60;;
6551;SDS011;3309;48.708;9.290;2022-08-21T04:26:30;0.57;;;0.57;;
6551;SDS011;3309;48.708;9.290;2022-08-21T04:28:56;0.50;;;0.50;;
6551;SDS011;3309;48.708;9.290;2022-08-21T04:31:23;0.43;;;0.43;;
6551;SDS011;3309;48.708;9.290;2022-08-21T04:33:50;0.40;;;0.40;;
6551;SDS011;3309;48.708;9.290;2022-08-21T04:36:15;0.60;;;0.60;;
6551;SDS011;3309;48.708;9.290;2022-08-21T04:38:41;0.57;;;0.57;;
6551;SDS011;3309;48.708;9.290;2022-08-21T04:41:07;0.50;;;0.50;;
6551;SDS011;3309;48.708;9.290;2022-08-21T04:43:33;0.60;;;0.60;;
6551;SDS011;3309;48.708;9.290;2022-08-21T04:45:59;0.40;;;0.40;;
6551;SDS011;3309;48.708;9.290;2022-08-21T04:48:25;0.53;;;0.53;;
6551;SDS011;3309;48.708;9.290;2022-08-21T04:51:08;0.50;;;0.50;;
6551;SDS011;3309;48.708;9.290;2022-08-21T04:53:59;0.50;;;0.50;;
6551;SDS011;3309;48.708;9.290;2022-08-21T04:56:41;0.40;;;0.40;;
6551;SDS011;3309;48.708;9.290;2022-08-21T04:59:15;0.40;;;0.40;;
6551;SDS011;3309;48.708;9.290;2022-08-21T05:01:45;0.40;;;0.40;;
6551;SDS011;3309;48.708;9.290;2022-08-21T05:04:12;0.50;;;0.50;;
6551;SDS011;3309;48.708;9.290;2022-08-21T05:06:41;0.50;;;0.50;;
6551;SDS011;3309;48.708;9.290;2022-08-21T05:09:11;0.40;;;0.40;;
6551;SDS011;3309;48.708;9.290;2022-08-21T05:11:39;0.50;;;0.50;;
6551;SDS011;3309;48.708;9.290;2022-08-21T05:14:05;0.50;;;0.50;;
6551;SDS011;3309;48.708;9.290;2022-08-21T05:16:31;0.50;;;0.50;;
6551;SDS011;3309;48.708;9.290;2022-08-21T05:18:57;0.60;;;0.60;;
6551;SDS011;3309;48.708;9.290;2022-08-21T05:21:23;0.50;;;0.50;;
6551;SDS011;3309;48.708;9.290;2022-08-21T05:23:49;0.40;;;0.40;;
6551;SDS011;3309;48.708;9.290;2022-08-21T05:26:14;0.40;;;0.40;;
6551;SDS011;3309;48.708;9.290;2022-08-21T05:28:40;0.40;;;0.40;;
6551;SDS011;3309;48.708;9.290;2022-08-21T05:31:05;0.40;;;0.40;;
6551;SDS011;3309;48.708;9.290;2022-08-21T05:33:31;0.40;;;0.40;;
6551;SDS011;3309;48.708;9.290;2022-08-21T05:35:56;0.43;;;0.43;;
6551;SDS011;3309;48.708;9.290;2022-08-21T05:38:23;0.50;;;0.50;;
6551;SDS011;3309;48.708;9.290;2022-08-21T05:40:53;0.50;;;0.50;;
6551;SDS011;3309;48.708;9.290;2022-08-21T05:43:19;0.50;;;0.50;;
6551;SDS011;3309;48.708;9.290;2022-08-21T05:45:45;0.50;;;0.50;;
6551;SDS011;3309;48.708;9.290;2022-08-21T05:48:12;0.40;;;0.40;;
6551;SDS011;3309;48.708;9.290;2022-08-21T05:50:40;0.47;;;0.47;;
6551;SDS011;3309;48.708;9.290;2022-08-21T05:53:06;0.50;;;0.50;;
6551;SDS011;3309;48.708;9.290;2022-08-21T05:55:32;0.57;;;0.57;;
6551;SDS011;3309;48.708;9.290;2022-08-21T05:57:57;0.40;;;0.40;;
6551;SDS011;3309;48.708;9.290;2022-08-21T06:00:23;0.50;;;0.50;;
6551;SDS011;3309;48.708;9.290;2022-08-21T06:02:49;0.43;;;0.43;;
6551;SDS011;3309;48.708;9.290;2022-08-21T06:05:15;0.40;;;0.40;;
6551;SDS011;3309;48.708;9.290;2022-08-21T06:07:42;0.37;;;0.37;;
6551;SDS011;3309;48.708;9.290;2022-08-21T06:10:07;0.40;;;0.40;;
6551;SDS011;3309;48.708;9.290;2022-08-21T06:12:33;0.50;;;0.50;;
6551;SDS011;3309;48.708;9.290;2022-08-21T06:14:59;0.40;;;0.40;;
6551;SDS011;3309;48.708;9.290;2022-08-21T06:17:24;0.50;;;0.50;;
6551;SDS011;3309;48.708;9.290;2022-08-21T06:19:53;0.43;;;0.43;;
6551;SDS011;3309;48.708;9.290;2022-08-21T06:22:19;0.50;;;0.50;;
6551;SDS011;3309;48.708;9.290;2022-08-21T06:24:45;0.50;;;0.50;;
6551;SDS011;3309;48.708;9.290;2022-08-21T06:27:11;0.50;;;0.50;;
6551;SDS011;3309;48.708;9.290;2022-08-21T06:29:37;0.40;;;0.40;;
6551;SDS011;3309;48.708;9.290;2022-08-21T06:32:03;0.43;;;0.43;;
6551;SDS011;3309;48.708;9.290;2022-08-21T06:34:29;0.40;;;0.40;;
6551;SDS011;3309;48.708;9.290;2022-08-21T06:36:54;0.40;;;0.40;;
6551;SDS011;3309;48.708;9.290;2022-08-21T06:39:20;0.40;;;0.40;;
6551;SDS011;3309;48.708;9.290;2022-08-21T06:41:46;0.43;;;0.43;;
6551;SDS011;3309;48.708;9.290;2022-08-21T06:44:15;0.40;;;0.40;;
6551;SDS011;3309;48.708;9.290;2022-08-21T06:46:41;0.40;;;0.40;;
6551;SDS011;3309;48.708;9.290;2022-08-21T06:49:07;0.43;;;0.43;;
6551;SDS011;3309;48.708;9.290;2022-08-21T06:51:32;0.40;;;0.40;;
6551;SDS011;3309;48.708;9.290;2022-08-21T06:53:58;0.50;;;0.50;;
6551;SDS011;3309;48.708;9.290;2022-08-21T06:56:24;0.40;;;0.40;;
6551;SDS011;3309;48.708;9.290;2022-08-21T06:58:49;0.40;;;0.40;;
6551;SDS011;3309;48.708;9.290;2022-08-21T07:01:15;0.40;;;0.40;;
6551;SDS011;3309;48.708;9.290;2022-08-21T07:03:41;0.40;;;0.40;;
6551;SDS011;3309;48.708;9.290;2022-08-21T07:06:08;0.40;;;0.40;;
6551;SDS011;3309;48.708;9.290;2022-08-21T07:08:34;0.40;;;0.40;;
6551;SDS011;3309;48.708;9.290;2022-08-21T07:11:02;0.40;;;0.40;;
6551;SDS011;3309;48.708;9.290;2022-08-21T07:13:31;0.40;;;0.40;;
6551;SDS011;3309;48.708;9.290;2022-08-21T07:15:57;0.40;;;0.40;;
6551;SDS011;3309;48.708;9.290;2022-08-21T07:18:23;0.40;;;0.40;;
6551;SDS011;3309;48.708;9.290;2022-08-21T07:20:48;0.40;;;0.40;;
6551;SDS011;3309;48.708;9.290;2022-08-21T07:23:25;0.40;;;0.40;;
6551;SDS011;3309;48.708;9.290;2022-08-21T07:25:53;0.40;;;0.40;;
6551;SDS011;3309;48.708;9.290;2022-08-21T07:28:19;0.40;;;0.40;;
6551;SDS011;3309;48.708;9.290;2022-08-21T07:30:45;0.40;;;0.40;;
6551;SDS011;3309;48.708;9.290;2022-08-21T07:33:15;0.40;;;0.40;;
6551;SDS011;3309;48.708;9.290;2022-08-21T07:35:41;0.30;;;0.30;;
6551;SDS011;3309;48.708;9.290;2022-08-21T07:38:06;0.40;;;0.40;;
6551;SDS011;3309;48.708;9.290;2022-08-21T07:40:32;0.40;;;0.40;;
6551;SDS011;3309;48.708;9.290;2022-08-21T07:42:57;0.43;;;0.43;;
6551;SDS011;3309;48.708;9.290;2022-08-21T07:45:23;0.30;;;0.30;;
6551;SDS011;3309;48.708;9.290;2022-08-21T07:47:49;0.40;;;0.40;;
6551;SDS011;3309;48.708;9.290;2022-08-21T07:50:15;0.43;;;0.43;;
6551;SDS011;3309;48.708;9.290;2022-08-21T07:52:41;0.30;;;0.30;;
6551;SDS011;3309;48.708;9.290;2022-08-21T07:55:09;0.40;;;0.40;;
6551;SDS011;3309;48.708;9.290;2022-08-21T07:57:36;0.30;;;0.30;;
6551;SDS011;3309;48.708;9.290;2022-08-21T08:00:03;0.57;;;0.57;;
6551;SDS011;3309;48.708;9.290;2022-08-21T08:02:30;0.60;;;0.60;;
6551;SDS011;3309;48.708;9.290;2022-08-21T08:04:59;0.50;;;0.50;;
6551;SDS011;3309;48.708;9.290;2022-08-21T08:07:26;0.60;;;0.60;;
6551;SDS011;3309;48.708;9.290;2022-08-21T08:09:51;0.60;;;0.60;;
6551;SDS011;3309;48.708;9.290;2022-08-21T08:12:17;0.60;;;0.60;;
6551;SDS011;3309;48.708;9.290;2022-08-21T08:14:43;0.30;;;0.30;;
6551;SDS011;3309;48.708;9.290;2022-08-21T08:17:09;0.40;;;0.40;;
6551;SDS011;3309;48.708;9.290;2022-08-21T08:19:34;0.40;;;0.40;;
6551;SDS011;3309;48.708;9.290;2022-08-21T08:22:00;0.50;;;0.50;;
6551;SDS011;3309;48.708;9.290;2022-08-21T08:24:25;0.20;;;0.20;;
6551;SDS011;3309;48.708;9.290;2022-08-21T08:26:51;0.10;;;0.10;;
6551;SDS011;3309;48.708;9.290;2022-08-21T08:29:18;0.10;;;0.10;;
6551;SDS011;3309;48.708;9.290;2022-08-21T08:31:45;0.10;;;0.10;;
6551;SDS011;3309;48.708;9.290;2022-08-21T08:34:10;0.30;;;0.30;;
6551;SDS011;3309;48.708;9.290;2022-08-21T08:36:36;0.20;;;0.20;;
6551;SDS011;3309;48.708;9.290;2022-08-21T08:39:02;0.23;;;0.23;;
6551;SDS011;3309;48.708;9.290;2022-08-21T08:41:30;0.30;;;0.30;;
6551;SDS011;3309;48.708;9.290;2022-08-21T08:44:06;0.20;;;0.20;;
6551;SDS011;3309;48.708;9.290;2022-08-21T08:46:35;0.10;;;0.10;;
6551;SDS011;3309;48.708;9.290;2022-08-21T08:49:08;0.17;;;0.17;;
6551;SDS011;3309;48.708;9.290;2022-08-21T08:51:40;0.20;;;0.20;;
6551;SDS011;3309;48.708;9.290;2022-08-21T08:54:09;0.10;;;0.10;;
6551;SDS011;3309;48.708;9.290;2022-08-21T08:56:38;0.10;;;0.10;;
6551;SDS011;3309;48.708;9.290;2022-08-21T08:59:24;0.22;;;0.22;;
6551;SDS011;3309;48.708;9.290;2022-08-21T09:02:03;0.10;;;0.10;;
6551;SDS011;3309;48.708;9.290;2022-08-21T09:04:29;0.20;;;0.20;;
6551;SDS011;3309;48.708;9.290;2022-08-21T09:12:33;0.20;;;0.20;;
6551;SDS011;3309;48.708;9.290;2022-08-21T09:15:15;0.10;;;0.10;;
6551;SDS011;3309;48.708;9.290;2022-08-21T09:17:57;0.00;;;0.00;;
6551;SDS011;3309;48.708;9.290;2022-08-21T09:26:25;0.10;;;0.10;;
6551;SDS011;3309;48.708;9.290;2022-08-21T09:28:56;0.10;;;0.10;;
6551;SDS011;3309;48.708;9.290;2022-08-21T09:31:25;0.20;;;0.20;;
6551;SDS011;3309;48.708;9.290;2022-08-21T09:33:57;0.22;;;0.22;;
6551;SDS011;3309;48.708;9.290;2022-08-21T09:36:31;0.20;;;0.20;;
6551;SDS011;3309;48.708;9.290;2022-08-21T09:39:09;0.20;;;0.20;;
6551;SDS011;3309;48.708;9.290;2022-08-21T09:41:37;0.17;;;0.17;;
6551;SDS011;3309;48.708;9.290;2022-08-21T09:44:04;0.15;;;0.15;;
6551;SDS011;3309;48.708;9.290;2022-08-21T09:46:32;0.20;;;0.20;;
6551;SDS011;3309;48.708;9.290;2022-08-21T09:48:59;0.10;;;0.10;;
6551;SDS011;3309;48.708;9.290;2022-08-21T09:51:28;0.15;;;0.15;;
6551;SDS011;3309;48.708;9.290;2022-08-21T09:56:34;0.10;;;0.10;;
6551;SDS011;3309;48.708;9.290;2022-08-21T10:01:56;0.20;;;0.20;;
6551;SDS011;3309;48.708;9.290;2022-08-21T10:04:23;0.25;;;0.25;;
6551;SDS011;3309;48.708;9.290;2022-08-21T10:07:05;0.20;;;0.20;;
6551;SDS011;3309;48.708;9.290;2022-08-21T10:09:35;0.10;;;0.10;;
6551;SDS011;3309;48.708;9.290;2022-08-21T10:12:19;0.20;;;0.20;;
6551;SDS011;3309;48.708;9.290;2022-08-21T10:14:51;0.10;;;0.10;;
6551;SDS011;3309;48.708;9.290;2022-08-21T10:17:43;0.17;;;0.17;;
6551;SDS011;3309;48.708;9.290;2022-08-21T10:20:20;0.20;;;0.20;;
6551;SDS011;3309;48.708;9.290;2022-08-21T10:25:41;0.30;;;0.30;;
6551;SDS011;3309;48.708;9.290;2022-08-21T10:28:25;0.30;;;0.30;;
6551;SDS011;3309;48.708;9.290;2022-08-21T10:31:12;0.30;;;0.30;;
6551;SDS011;3309;48.708;9.290;2022-08-21T10:39:56;0.30;;;0.30;;
6551;SDS011;3309;48.708;9.290;2022-08-21T10:51:10;0.30;;;0.30;;
6551;SDS011;3309;48.708;9.290;2022-08-21T10:56:28;0.40;;;0.40;;
6551;SDS011;3309;48.708;9.290;2022-08-21T11:07:07;0.30;;;0.30;;
6551;SDS011;3309;48.708;9.290;2022-08-21T11:09:55;0.50;;;0.50;;
6551;SDS011;3309;48.708;9.290;2022-08-21T11:12:41;0.50;;;0.50;;
6551;SDS011;3309;48.708;9.290;2022-08-21T11:15:16;0.50;;;0.50;;
6551;SDS011;3309;48.708;9.290;2022-08-21T11:18:06;0.50;;;0.50;;
6551;SDS011;3309;48.708;9.290;2022-08-21T11:20:48;0.60;;;0.60;;
6551;SDS011;3309;48.708;9.290;2022-08-21T11:23:27;0.50;;;0.50;;
6551;SDS011;3309;48.708;9.290;2022-08-21T11:26:19;0.67;;;0.67;;
6551;SDS011;3309;48.708;9.290;2022-08-21T11:28:56;0.70;;;0.70;;
6551;SDS011;3309;48.708;9.290;2022-08-21T11:31:38;0.60;;;0.60;;
6551;SDS011;3309;48.708;9.290;2022-08-21T11:34:19;0.53;;;0.53;;
6551;SDS011;3309;48.708;9.290;2022-08-21T11:39:26;0.60;;;0.60;;
6551;SDS011;3309;48.708;9.290;2022-08-21T11:42:14;0.60;;;0.60;;
6551;SDS011;3309;48.708;9.290;2022-08-21T11:50:03;0.80;;;0.80;;
6551;SDS011;3309;48.708;9.290;2022-08-21T11:53:07;0.60;;;0.60;;
6551;SDS011;3309;48.708;9.290;2022-08-21T11:58:11;0.50;;;0.50;;
6551;SDS011;3309;48.708;9.290;2022-08-21T12:00:53;0.47;;;0.47;;
6551;SDS011;3309;48.708;9.290;2022-08-21T12:03:28;0.60;;;0.60;;
6551;SDS011;3309;48.708;9.290;2022-08-21T12:06:00;0.60;;;0.60;;
6551;SDS011;3309;48.708;9.290;2022-08-21T12:08:33;0.50;;;0.50;;
6551;SDS011;3309;48.708;9.290;2022-08-21T12:13:52;0.53;;;0.53;;
6551;SDS011;3309;48.708;9.290;2022-08-21T12:16:28;0.50;;;0.50;;
6551;SDS011;3309;48.708;9.290;2022-08-21T12:21:31;0.43;;;0.43;;
6551;SDS011;3309;48.708;9.290;2022-08-21T12:24:16;0.50;;;0.50;;
6551;SDS011;3309;48.708;9.290;2022-08-21T12:26:58;0.50;;;0.50;;
6551;SDS011;3309;48.708;9.290;2022-08-21T12:29:50;0.33;;;0.33;;
6551;SDS011;3309;48.708;9.290;2022-08-21T12:35:09;0.40;;;0.40;;
6551;SDS011;3309;48.708;9.290;2022-08-21T12:37:45;0.50;;;0.50;;
6551;SDS011;3309;48.708;9.290;2022-08-21T12:42:57;0.60;;;0.60;;
6551;SDS011;3309;48.708;9.290;2022-08-21T12:48:00;0.60;;;0.60;;
6551;SDS011;3309;48.708;9.290;2022-08-21T12:53:06;0.50;;;0.50;;
6551;SDS011;3309;48.708;9.290;2022-08-21T12:55:35;0.50;;;0.50;;
6551;SDS011;3309;48.708;9.290;2022-08-21T12:58:15;0.40;;;0.40;;
6551;SDS011;3309;48.708;9.290;2022-08-21T13:00:44;0.60;;;0.60;;
6551;SDS011;3309;48.708;9.290;2022-08-21T13:03:14;0.50;;;0.50;;
6551;SDS011;3309;48.708;9.290;2022-08-21T13:05:40;0.40;;;0.40;;
6551;SDS011;3309;48.708;9.290;2022-08-21T13:08:06;0.50;;;0.50;;
6551;SDS011;3309;48.708;9.290;2022-08-21T13:10:34;0.60;;;0.60;;
6551;SDS011;3309;48.708;9.290;2022-08-21T13:13:10;0.60;;;0.60;;
6551;SDS011;3309;48.708;9.290;2022-08-21T13:15:42;0.70;;;0.70;;
6551;SDS011;3309;48.708;9.290;2022-08-21T13:18:08;0.50;;;0.50;;
6551;SDS011;3309;48.708;9.290;2022-08-21T13:20:48;0.67;;;0.67;;
6551;SDS011;3309;48.708;9.290;2022-08-21T13:23:24;0.50;;;0.50;;
6551;SDS011;3309;48.708;9.290;2022-08-21T13:25:53;0.60;;;0.60;;
6551;SDS011;3309;48.708;9.290;2022-08-21T13:28:19;0.70;;;0.70;;
6551;SDS011;3309;48.708;9.290;2022-08-21T13:30:49;0.60;;;0.60;;
6551;SDS011;3309;48.708;9.290;2022-08-21T13:33:17;0.50;;;0.50;;
6551;SDS011;3309;48.708;9.290;2022-08-21T13:35:47;0.50;;;0.50;;
6551;SDS011;3309;48.708;9.290;2022-08-21T13:38:35;0.60;;;0.60;;
6551;SDS011;3309;48.708;9.290;2022-08-21T13:41:07;0.60;;;0.60;;
6551;SDS011;3309;48.708;9.290;2022-08-21T13:43:43;0.70;;;0.70;;
6551;SDS011;3309;48.708;9.290;2022-08-21T13:46:10;0.50;;;0.50;;
6551;SDS011;3309;48.708;9.290;2022-08-21T13:48:39;0.50;;;0.50;;
6551;SDS011;3309;48.708;9.290;2022-08-21T13:51:06;0.57;;;0.57;;
6551;SDS011;3309;48.708;9.290;2022-08-21T13:53:43;0.47;;;0.47;;
6551;SDS011;3309;48.708;9.290;2022-08-21T13:56:21;0.40;;;0.40;;
6551;SDS011;3309;48.708;9.290;2022-08-21T13:58:52;0.50;;;0.50;;
6551;SDS011;3309;48.708;9.290;2022-08-21T14:01:23;0.40;;;0.40;;
6551;SDS011;3309;48.708;9.290;2022-08-21T14:04:04;0.50;;;0.50;;
6551;SDS011;3309;48.708;9.290;2022-08-21T14:06:37;0.60;;;0.60;;
6551;SDS011;3309;48.708;9.290;2022-08-21T14:09:15;0.40;;;0.40;;
6551;SDS011;3309;48.708;9.290;2022-08-21T14:11:57;0.50;;;0.50;;
6551;SDS011;3309;48.708;9.290;2022-08-21T14:14:27;0.70;;;0.70;;
6551;SDS011;3309;48.708;9.290;2022-08-21T14:16:59;0.60;;;0.60;;
6551;SDS011;3309;48.708;9.290;2022-08-21T14:19:36;0.50;;;0.50;;
6551;SDS011;3309;48.708;9.290;2022-08-21T14:24:47;0.50;;;0.50;;
6551;SDS011;3309;48.708;9.290;2022-08-21T14:27:15;0.50;;;0.50;;
6551;SDS011;3309;48.708;9.290;2022-08-21T14:29:43;0.50;;;0.50;;
6551;SDS011;3309;48.708;9.290;2022-08-21T14:32:13;0.40;;;0.40;;
6551;SDS011;3309;48.708;9.290;2022-08-21T14:34:41;0.40;;;0.40;;
6551;SDS011;3309;48.708;9.290;2022-08-21T14:37:06;0.40;;;0.40;;
6551;SDS011;3309;48.708;9.290;2022-08-21T14:39:32;0.50;;;0.50;;
6551;SDS011;3309;48.708;9.290;2022-08-21T14:41:57;0.40;;;0.40;;
6551;SDS011;3309;48.708;9.290;2022-08-21T14:44:24;0.53;;;0.53;;
6551;SDS011;3309;48.708;9.290;2022-08-21T14:46:50;0.50;;;0.50;;
6551;SDS011;3309;48.708;9.290;2022-08-21T14:49:15;0.40;;;0.40;;
6551;SDS011;3309;48.708;9.290;2022-08-21T14:51:41;0.40;;;0.40;;
6551;SDS011;3309;48.708;9.290;2022-08-21T14:54:06;0.40;;;0.40;;
6551;SDS011;3309;48.708;9.290;2022-08-21T14:56:33;0.47;;;0.47;;
6551;SDS011;3309;48.708;9.290;2022-08-21T14:59:02;0.60;;;0.60;;
6551;SDS011;3309;48.708;9.290;2022-08-21T15:01:30;0.50;;;0.50;;
6551;SDS011;3309;48.708;9.290;2022-08-21T15:04:09;0.30;;;0.30;;
6551;SDS011;3309;48.708;9.290;2022-08-21T15:06:35;0.40;;;0.40;;
6551;SDS011;3309;48.708;9.290;2022-08-21T15:09:01;0.50;;;0.50;;
6551;SDS011;3309;48.708;9.290;2022-08-21T15:11:29;0.50;;;0.50;;
6551;SDS011;3309;48.708;9.290;2022-08-21T15:13:55;0.40;;;0.40;;
6551;SDS011;3309;48.708;9.290;2022-08-21T15:16:22;0.30;;;0.30;;
6551;SDS011;3309;48.708;9.290;2022-08-21T15:18:49;0.40;;;0.40;;
6551;SDS011;3309;48.708;9.290;2022-08-21T15:21:14;0.40;;;0.40;;
6551;SDS011;3309;48.708;9.290;2022-08-21T15:23:40;0.50;;;0.50;;
6551;SDS011;3309;48.708;9.290;2022-08-21T15:26:05;0.30;;;0.30;;
6551;SDS011;3309;48.708;9.290;2022-08-21T15:28:31;0.40;;;0.40;;
6551;SDS011;3309;48.708;9.290;2022-08-21T15:30:56;0.40;;;0.40;;
6551;SDS011;3309;48.708;9.290;2022-08-21T15:33:25;0.40;;;0.40;;
6551;SDS011;3309;48.708;9.290;2022-08-21T15:35:50;0.40;;;0.40;;
6551;SDS011;3309;48.708;9.290;2022-08-21T15:38:16;0.33;;;0.33;;
6551;SDS011;3309;48.708;9.290;2022-08-21T15:40:41;0.37;;;0.37;;
6551;SDS011;3309;48.708;9.290;2022-08-21T15:45:37;0.50;;;0.50;;
6551;SDS011;3309;48.708;9.290;2022-08-21T15:48:02;0.50;;;0.50;;
6551;SDS011;3309;48.708;9.290;2022-08-21T15:50:29;0.50;;;0.50;;
6551;SDS011;3309;48.708;9.290;2022-08-21T15:52:56;0.50;;;0.50;;
6551;SDS011;3309;48.708;9.290;2022-08-21T15:55:22;0.40;;;0.40;;
6551;SDS011;3309;48.708;9.290;2022-08-21T15:57:49;0.50;;;0.50;;
6551;SDS011;3309;48.708;9.290;2022-08-21T16:00:18;0.30;;;0.30;;
6551;SDS011;3309;48.708;9.290;2022-08-21T16:02:48;0.40;;;0.40;;
6551;SDS011;3309;48.708;9.290;2022-08-21T16:05:17;0.33;;;0.33;;
6551;SDS011;3309;48.708;9.290;2022-08-21T16:07:43;0.50;;;0.50;;
6551;SDS011;3309;48.708;9.290;2022-08-21T16:10:10;0.40;;;0.40;;
6551;SDS011;3309;48.708;9.290;2022-08-21T16:12:41;0.53;;;0.53;;
6551;SDS011;3309;48.708;9.290;2022-08-21T16:15:16;0.30;;;0.30;;
6551;SDS011;3309;48.708;9.290;2022-08-21T16:17:43;0.30;;;0.30;;
6551;SDS011;3309;48.708;9.290;2022-08-21T16:20:13;0.40;;;0.40;;
6551;SDS011;3309;48.708;9.290;2022-08-21T16:22:47;0.33;;;0.33;;
6551;SDS011;3309;48.708;9.290;2022-08-21T16:25:13;0.50;;;0.50;;
6551;SDS011;3309;48.708;9.290;2022-08-21T16:27:40;0.43;;;0.43;;
6551;SDS011;3309;48.708;9.290;2022-08-21T16:30:08;0.40;;;0.40;;
6551;SDS011;3309;48.708;9.290;2022-08-21T16:32:34;0.57;;;0.57;;
6551;SDS011;3309;48.708;9.290;2022-08-21T16:35:00;0.40;;;0.40;;
6551;SDS011;3309;48.708;9.290;2022-08-21T16:37:27;0.40;;;0.40;;
6551;SDS011;3309;48.708;9.290;2022-08-21T16:39:53;0.40;;;0.40;;
6551;SDS011;3309;48.708;9.290;2022-08-21T16:42:20;0.50;;;0.50;;
6551;SDS011;3309;48.708;9.290;2022-08-21T16:44:47;0.30;;;0.30;;